Time;durP1;ratioP1;P1;durP2;ratioP2;P2;SDS_P1;SDS_P2;PMS_P1;PMS_P2;Temp;Humidity;BMP_temperature;BMP_pressure;BME280_temperature;BME280_humidity;BME280_pressure;Samples;Min_cycle;Max_cycle;Signal;HPM_P1;HPM_P2
2022/10/09 00:00:17;;;;;;;;;3.00;3.00;;;;;7.20;72.63;100841.91;5039114;28;8843;-61
2022/10/09 00:02:45;;;;;;;;;1.00;1.00;;;;;7.16;72.90;100833.25;5039507;28;8862;-59
2022/10/09 00:05:13;;;;;;;;;4.00;4.00;;;;;7.12;72.56;100834.34;5039298;28;8844;-61
2022/10/09 00:07:40;;;;;;;;;4.40;4.40;;;;;7.09;72.55;100845.09;5038460;28;8847;-62
2022/10/09 00:10:08;;;;;;;;;6.80;6.00;;;;;7.05;72.80;100842.69;5038675;28;8856;-62
2022/10/09 00:12:36;;;;;;;;;0.40;0.40;;;;;7.01;73.04;100842.00;5038899;28;8847;-60
2022/10/09 00:15:04;;;;;;;;;3.00;2.60;;;;;6.99;72.98;100856.22;5038684;28;8848;-60
2022/10/09 00:17:31;;;;;;;;;4.00;3.80;;;;;6.97;73.11;100851.00;5038983;28;8886;-61
2022/10/09 00:19:59;;;;;;;;;4.80;4.00;;;;;6.96;72.50;100854.59;5038679;28;8848;-60
2022/10/09 00:22:27;;;;;;;;;3.80;3.60;;;;;6.95;72.42;100862.59;5037271;28;8867;-60
2022/10/09 00:24:55;;;;;;;;;4.40;3.20;;;;;6.94;73.19;100858.25;5037524;28;8852;-61
2022/10/09 00:27:23;;;;;;;;;4.40;4.00;;;;;6.93;72.37;100859.19;5037636;28;8840;-60
2022/10/09 00:29:50;;;;;;;;;4.00;4.00;;;;;6.94;72.71;100859.13;5017329;28;9512;-60
2022/10/09 00:32:18;;;;;;;;;6.00;4.00;;;;;6.95;72.97;100857.31;5017156;28;8858;-60
2022/10/09 00:34:45;;;;;;;;;5.60;4.80;;;;;6.97;72.66;100866.88;5017502;28;8893;-60
2022/10/09 00:37:13;;;;;;;;;8.00;6.40;;;;;6.98;72.54;100868.59;5017618;28;8862;-60
2022/10/09 00:39:41;;;;;;;;;8.40;6.80;;;;;7.00;72.21;100866.75;5018283;28;8835;-60
2022/10/09 00:42:09;;;;;;;;;7.80;6.80;;;;;7.01;72.27;100862.28;5018946;28;8834;-60
2022/10/09 00:44:36;;;;;;;;;6.40;5.60;;;;;7.01;72.70;100860.53;5018652;28;8928;-59
2022/10/09 00:47:04;;;;;;;;;6.00;6.00;;;;;7.02;72.35;100864.00;5019003;28;8874;-61
2022/10/09 00:49:32;;;;;;;;;6.00;6.00;;;;;7.00;72.23;100857.94;5018517;28;8814;-60
2022/10/09 00:52:00;;;;;;;;;6.40;6.00;;;;;6.98;72.12;100863.31;5018753;28;8842;-60
2022/10/09 00:54:27;;;;;;;;;3.80;3.20;;;;;6.95;72.06;100855.53;5018700;28;8843;-61
2022/10/09 00:56:55;;;;;;;;;3.40;3.40;;;;;6.90;72.40;100860.19;5018808;28;8918;-60
2022/10/09 00:59:23;;;;;;;;;3.80;3.20;;;;;6.84;72.69;100863.13;5033982;28;8929;-60
2022/10/09 01:01:50;;;;;;;;;3.00;3.00;;;;;6.78;72.97;100863.47;5018597;28;8818;-60
2022/10/09 01:04:19;;;;;;;;;4.00;3.40;;;;;6.72;72.93;100860.25;5018353;28;8829;-60
2022/10/09 01:06:46;;;;;;;;;3.40;3.40;;;;;6.68;73.01;100859.53;5018486;28;8928;-61
2022/10/09 01:09:14;;;;;;;;;4.00;4.00;;;;;6.66;72.60;100860.56;5017893;28;8850;-60
2022/10/09 01:11:42;;;;;;;;;4.00;4.00;;;;;6.61;72.88;100857.28;5018269;28;8835;-60
2022/10/09 01:14:09;;;;;;;;;3.00;3.00;;;;;6.57;72.89;100861.00;5018091;28;8815;-61
2022/10/09 01:16:37;;;;;;;;;4.00;4.00;;;;;6.53;73.22;100860.28;5018466;28;8838;-60
2022/10/09 01:19:05;;;;;;;;;4.80;4.80;;;;;6.49;73.30;100853.44;5018062;28;8908;-60
2022/10/09 01:21:33;;;;;;;;;3.20;3.20;;;;;6.46;73.30;100852.72;5018426;28;8846;-61
2022/10/09 01:24:00;;;;;;;;;0.40;0.40;;;;;6.41;73.12;100849.44;5018721;28;8831;-60
2022/10/09 01:26:30;;;;;;;;;4.60;3.80;;;;;6.39;73.23;100848.66;5018329;28;8830;-60
2022/10/09 01:28:58;;;;;;;;;3.00;3.00;;;;;6.36;72.93;100847.03;5030305;28;8824;-60
2022/10/09 01:31:25;;;;;;;;;5.40;4.40;;;;;6.36;73.09;100848.81;5038429;28;9667;-60
2022/10/09 01:33:53;;;;;;;;;3.00;2.60;;;;;6.35;73.40;100849.72;5037427;28;8840;-60
2022/10/09 01:36:21;;;;;;;;;1.00;1.00;;;;;6.33;73.15;100843.66;5037580;28;8862;-61
2022/10/09 01:38:48;;;;;;;;;4.00;4.00;;;;;6.31;72.83;100846.38;5037278;28;8811;-60
2022/10/09 01:41:16;;;;;;;;;3.00;3.00;;;;;6.28;73.30;100838.59;5017859;28;8834;-60
2022/10/09 01:43:44;;;;;;;;;2.60;2.60;;;;;6.25;73.82;100832.59;5017884;28;8850;-61
2022/10/09 01:46:11;;;;;;;;;4.00;4.00;;;;;6.24;73.07;100841.47;5018057;28;8929;-60
2022/10/09 01:48:39;;;;;;;;;1.00;1.00;;;;;6.23;73.12;100835.31;5017893;28;8869;-61
2022/10/09 01:51:07;;;;;;;;;3.00;3.00;;;;;6.22;72.89;100838.03;5017748;28;8811;-60
2022/10/09 01:53:35;;;;;;;;;4.80;3.80;;;;;6.21;73.35;100838.97;5017646;28;8846;-61
2022/10/09 01:56:02;;;;;;;;;4.00;4.00;;;;;6.17;73.02;100835.63;5017837;28;8888;-61
2022/10/09 01:58:30;;;;;;;;;2.60;2.60;;;;;6.13;73.20;100834.03;5025493;28;8901;-60
2022/10/09 02:00:57;;;;;;;;;6.40;5.20;;;;;6.11;73.62;100835.03;5037643;28;8839;-60
2022/10/09 02:03:25;;;;;;;;;6.60;4.00;;;;;6.09;73.88;100832.47;5037201;28;8836;-61
2022/10/09 02:05:53;;;;;;;;;4.80;4.00;;;;;6.07;72.95;100834.31;5037194;28;8847;-60
2022/10/09 02:08:20;;;;;;;;;7.00;4.80;;;;;6.08;73.56;100832.53;5037493;28;8847;-61
2022/10/09 02:10:48;;;;;;;;;2.60;1.00;;;;;6.08;73.08;100829.91;5037752;28;9505;-61
2022/10/09 02:13:16;;;;;;;;;2.20;1.00;;;;;6.06;73.17;100824.69;5037262;28;8824;-60
2022/10/09 02:15:44;;;;;;;;;3.60;3.60;;;;;6.06;73.32;100823.84;5037363;28;8917;-60
2022/10/09 02:18:12;;;;;;;;;3.60;3.60;;;;;6.04;73.19;100829.19;5037212;28;8966;-59
2022/10/09 02:20:39;;;;;;;;;2.60;2.20;;;;;6.04;73.16;100828.31;5036076;28;8836;-60
2022/10/09 02:23:07;;;;;;;;;3.60;3.60;;;;;6.05;73.04;100830.03;5037182;28;8847;-60
2022/10/09 02:25:35;;;;;;;;;5.80;3.60;;;;;6.06;73.36;100823.84;5037124;28;8905;-61
2022/10/09 02:28:02;;;;;;;;;5.60;5.60;;;;;6.03;73.01;100822.19;5036877;28;8824;-60
2022/10/09 02:30:30;;;;;;;;;6.00;4.00;;;;;6.00;73.95;100816.19;5036691;28;8921;-59
2022/10/09 02:32:58;;;;;;;;;3.00;3.00;;;;;5.99;73.41;100823.25;5036496;28;8832;-60
2022/10/09 02:35:25;;;;;;;;;2.60;2.60;;;;;5.96;73.33;100814.59;5036913;28;8848;-60
2022/10/09 02:37:53;;;;;;;;;3.00;3.00;;;;;5.94;73.94;100816.47;5036299;28;8909;-60
2022/10/09 02:40:21;;;;;;;;;4.00;3.20;;;;;5.91;73.15;100813.97;5036653;28;9544;-60
2022/10/09 02:42:49;;;;;;;;;4.00;3.60;;;;;5.88;73.45;100814.09;5036296;28;8855;-60
2022/10/09 02:45:17;;;;;;;;;3.80;3.80;;;;;5.84;73.56;100810.75;5036261;28;8839;-60
2022/10/09 02:47:45;;;;;;;;;1.00;1.00;;;;;5.79;73.60;100807.47;5036307;28;8832;-60
2022/10/09 02:50:12;;;;;;;;;5.60;4.00;;;;;5.77;73.81;100805.81;5035643;28;8831;-60
2022/10/09 02:52:40;;;;;;;;;3.40;3.00;;;;;5.73;73.70;100813.00;5035163;28;8929;-60
2022/10/09 02:55:08;;;;;;;;;5.60;5.60;;;;;5.69;73.71;100818.50;5035417;28;8824;-60
2022/10/09 02:57:36;;;;;;;;;3.00;3.00;;;;;5.65;73.83;100803.72;5036094;28;8844;-60
2022/10/09 03:00:04;;;;;;;;;1.00;1.00;;;;;5.63;74.18;100806.41;5035416;28;8839;-60
2022/10/09 03:02:31;;;;;;;;;6.00;6.00;;;;;5.63;73.88;100800.28;5035755;28;8835;-61
2022/10/09 03:04:59;;;;;;;;;3.00;3.00;;;;;5.63;73.37;100805.56;5035451;28;9679;-61
2022/10/09 03:07:27;;;;;;;;;3.20;3.20;;;;;5.62;73.91;100804.69;5036004;28;8835;-61
2022/10/09 03:09:56;;;;;;;;;4.00;4.00;;;;;5.62;74.12;100801.22;5036095;28;8820;-61
2022/10/09 03:12:23;;;;;;;;;3.00;3.00;;;;;5.62;73.80;100807.34;5036152;28;8909;-60
2022/10/09 03:14:51;;;;;;;;;4.00;3.60;;;;;5.62;73.77;100801.22;5036381;28;8953;-60
2022/10/09 03:17:18;;;;;;;;;4.00;4.00;;;;;5.61;74.20;100794.22;5035931;28;8898;-60
2022/10/09 03:19:46;;;;;;;;;3.00;3.00;;;;;5.61;74.22;100797.72;5036045;28;8824;-60
2022/10/09 03:22:14;;;;;;;;;6.00;6.00;;;;;5.60;74.15;100797.78;5036197;28;9595;-60
2022/10/09 03:24:41;;;;;;;;;6.00;5.60;;;;;5.58;74.01;100800.50;5036071;28;8851;-61
2022/10/09 03:27:09;;;;;;;;;4.40;4.40;;;;;5.56;74.46;100798.84;5036062;28;8938;-61
2022/10/09 03:29:37;;;;;;;;;3.20;3.20;;;;;5.53;73.71;100799.84;5035442;28;8917;-60
2022/10/09 03:32:04;;;;;;;;;3.40;3.40;;;;;5.52;73.85;100799.91;5035713;28;9510;-61
2022/10/09 03:34:32;;;;;;;;;4.00;4.00;;;;;5.52;74.19;100803.41;5035872;28;8942;-61
2022/10/09 03:37:00;;;;;;;;;5.20;4.40;;;;;5.53;74.28;100799.00;5035853;28;9615;-60
2022/10/09 03:39:28;;;;;;;;;4.00;4.00;;;;;5.52;73.76;100794.63;5036026;28;8855;-62
2022/10/09 03:41:55;;;;;;;;;5.60;5.60;;;;;5.51;73.62;100800.84;5036005;28;8906;-60
2022/10/09 03:44:23;;;;;;;;;4.40;4.40;;;;;5.47;74.04;100805.41;5035917;28;8848;-60
2022/10/09 03:46:51;;;;;;;;;4.80;4.00;;;;;5.43;73.89;100802.97;5036041;28;8910;-62
2022/10/09 03:49:19;;;;;;;;;4.80;3.60;;;;;5.40;74.53;100797.84;5036035;28;9587;-62
2022/10/09 03:51:46;;;;;;;;;3.00;3.00;;;;;5.38;74.56;100802.34;5035825;28;8848;-60
2022/10/09 03:54:14;;;;;;;;;6.60;6.20;;;;;5.34;74.20;100801.63;5035785;28;8919;-62
2022/10/09 03:56:41;;;;;;;;;2.60;1.00;;;;;5.31;74.21;100803.53;5035939;28;8839;-60
2022/10/09 03:59:09;;;;;;;;;4.00;4.00;;;;;5.27;74.66;100807.22;5035213;28;8812;-59
2022/10/09 04:01:37;;;;;;;;;3.20;3.20;;;;;5.22;74.58;100801.28;5035285;28;8847;-60
2022/10/09 04:04:04;;;;;;;;;4.80;4.80;;;;;5.19;74.48;100804.06;5035485;28;8835;-59
2022/10/09 04:06:32;;;;;;;;;7.80;6.00;;;;;5.14;74.58;100800.75;5035616;28;8823;-60
2022/10/09 04:09:01;;;;;;;;;5.20;4.00;;;;;5.10;74.61;100796.56;5035565;28;8828;-59
2022/10/09 04:11:28;;;;;;;;;4.00;4.00;;;;;5.06;74.71;100800.25;5035848;28;8824;-59
2022/10/09 04:13:56;;;;;;;;;4.80;3.80;;;;;5.03;74.50;100805.66;5035235;28;8823;-59
2022/10/09 04:16:23;;;;;;;;;4.40;4.40;;;;;5.00;74.40;100808.41;5035395;28;8815;-59
2022/10/09 04:18:51;;;;;;;;;5.20;5.20;;;;;4.97;74.28;100798.88;5035423;28;8950;-60
2022/10/09 04:21:19;;;;;;;;;2.80;2.60;;;;;4.96;74.53;100794.53;5035478;28;9640;-60
2022/10/09 04:23:47;;;;;;;;;3.00;3.00;;;;;4.96;74.92;100801.56;5035559;28;8835;-60
2022/10/09 04:26:15;;;;;;;;;4.00;4.00;;;;;4.94;74.30;100799.00;5035541;28;8909;-60
2022/10/09 04:28:43;;;;;;;;;4.40;4.40;;;;;4.92;74.66;100797.34;5035276;28;8820;-62
2022/10/09 04:31:11;;;;;;;;;3.60;3.40;;;;;4.89;75.03;100794.84;5035177;28;8836;-63
2022/10/09 04:33:39;;;;;;;;;8.60;7.00;;;;;4.89;74.38;100795.72;5035223;28;8812;-60
2022/10/09 04:36:07;;;;;;;;;4.00;4.00;;;;;4.86;74.34;100800.25;5035101;28;8909;-62
2022/10/09 04:38:34;;;;;;;;;4.80;4.00;;;;;4.85;75.11;100793.25;5034966;28;8935;-60
2022/10/09 04:41:02;;;;;;;;;1.00;1.00;;;;;4.84;74.29;100783.63;5034999;28;9513;-60
2022/10/09 04:43:29;;;;;;;;;3.60;3.60;;;;;4.84;74.66;100791.53;5035801;28;8828;-61
2022/10/09 04:45:57;;;;;;;;;4.40;4.00;;;;;4.84;74.49;100794.16;5038731;28;8947;-61
2022/10/09 04:48:25;;;;;;;;;3.80;3.80;;;;;4.86;75.23;100789.72;5038233;28;8910;-60
2022/10/09 04:50:53;;;;;;;;;3.40;3.00;;;;;4.85;74.06;100795.88;5037981;28;8924;-62
2022/10/09 04:53:20;;;;;;;;;5.20;4.00;;;;;4.81;74.98;100792.53;5038497;28;8901;-62
2022/10/09 04:55:48;;;;;;;;;3.40;3.20;;;;;4.79;74.40;100793.53;5038563;28;9606;-61
2022/10/09 04:58:16;;;;;;;;;3.60;3.60;;;;;4.76;75.26;100783.09;5038346;28;8889;-62
2022/10/09 05:00:44;;;;;;;;;3.80;3.80;;;;;4.75;74.69;100792.81;5038308;28;8874;-62
2022/10/09 05:03:11;;;;;;;;;3.20;3.20;;;;;4.73;74.73;100796.41;5038092;28;9514;-62
2022/10/09 05:05:39;;;;;;;;;1.00;1.00;;;;;4.70;74.55;100796.53;5037807;28;8840;-60
2022/10/09 05:08:07;;;;;;;;;4.00;4.00;;;;;4.67;74.70;100797.53;5037815;28;9080;-62
2022/10/09 05:10:35;;;;;;;;;4.00;4.00;;;;;4.64;74.58;100791.53;5038114;28;8852;-62
2022/10/09 05:13:03;;;;;;;;;3.00;3.00;;;;;4.62;74.82;100788.09;5038282;28;8832;-60
2022/10/09 05:15:30;;;;;;;;;3.40;3.20;;;;;4.62;74.61;100782.81;5037569;28;8852;-61
2022/10/09 05:17:58;;;;;;;;;4.00;3.40;;;;;4.60;75.29;100789.94;5037740;28;8832;-61
2022/10/09 05:20:26;;;;;;;;;3.00;3.00;;;;;4.58;74.78;100784.72;5037459;28;8855;-62
2022/10/09 05:22:54;;;;;;;;;1.00;1.00;;;;;4.55;74.53;100787.50;5037860;28;8914;-62
2022/10/09 05:25:21;;;;;;;;;5.40;4.80;;;;;4.56;74.85;100783.09;5037314;28;8832;-62
2022/10/09 05:27:49;;;;;;;;;1.00;1.00;;;;;4.56;74.70;100788.38;5037059;28;8866;-62
2022/10/09 05:30:17;;;;;;;;;4.80;4.00;;;;;4.58;74.82;100784.72;5036873;28;8815;-62
2022/10/09 05:32:44;;;;;;;;;6.80;4.80;;;;;4.58;75.12;100784.72;5037372;28;8917;-62
2022/10/09 05:35:12;;;;;;;;;4.00;4.00;;;;;4.60;74.38;100790.81;5037519;28;8832;-62
2022/10/09 05:37:40;;;;;;;;;6.60;6.00;;;;;4.60;74.93;100785.53;5037431;28;8886;-62
2022/10/09 05:40:08;;;;;;;;;8.20;6.40;;;;;4.60;74.48;100788.16;5037606;28;8890;-62
2022/10/09 05:42:35;;;;;;;;;4.40;3.60;;;;;4.63;75.05;100789.81;5037214;28;8930;-62
2022/10/09 05:45:03;;;;;;;;;4.00;3.40;;;;;4.63;74.82;100776.63;5037327;28;8864;-62
2022/10/09 05:47:31;;;;;;;;;6.20;6.20;;;;;4.65;74.97;100783.53;5037169;28;8839;-60
2022/10/09 05:49:59;;;;;;;;;6.60;4.40;;;;;4.67;74.93;100783.47;5037621;28;8835;-62
2022/10/09 05:52:26;;;;;;;;;8.00;6.00;;;;;4.69;73.95;100771.06;5037341;28;8921;-60
2022/10/09 05:54:55;;;;;;;;;1.40;1.00;;;;;4.70;74.07;100776.31;5036129;28;8836;-61
2022/10/09 05:57:23;;;;;;;;;9.80;9.40;;;;;4.70;74.66;100784.22;5036857;28;8840;-62
2022/10/09 05:59:51;;;;;;;;;9.20;9.00;;;;;4.73;74.04;100775.31;5037156;28;8836;-62
2022/10/09 06:02:19;;;;;;;;;3.00;3.00;;;;;4.75;74.46;100778.75;5036266;28;8851;-60
2022/10/09 06:04:46;;;;;;;;;7.00;7.00;;;;;4.76;74.46;100770.78;5036635;28;9055;-60
2022/10/09 06:07:14;;;;;;;;;7.00;7.00;;;;;4.77;74.03;100775.13;5036822;28;8855;-61
2022/10/09 06:09:42;;;;;;;;;9.80;6.20;;;;;4.80;74.17;100774.13;5037043;28;8832;-60
2022/10/09 06:12:10;;;;;;;;;9.60;8.20;;;;;4.85;74.25;100780.06;5037181;28;8816;-61
2022/10/09 06:14:37;;;;;;;;;15.00;12.40;;;;;4.87;74.40;100781.69;5036828;28;8859;-60
2022/10/09 06:17:05;;;;;;;;;8.60;5.20;;;;;4.91;74.19;100778.03;5036552;28;8832;-62
2022/10/09 06:19:33;;;;;;;;;6.60;6.20;;;;;4.94;73.89;100780.53;5036090;28;8855;-60
2022/10/09 06:22:00;;;;;;;;;3.80;3.40;;;;;4.97;73.50;100782.16;5036748;28;8929;-61
2022/10/09 06:24:28;;;;;;;;;3.60;3.60;;;;;5.00;73.94;100788.16;5036780;28;8838;-61
2022/10/09 06:26:56;;;;;;;;;3.00;3.00;;;;;5.05;73.59;100782.69;5037003;28;8819;-59
2022/10/09 06:29:24;;;;;;;;;5.80;4.40;;;;;5.10;73.36;100788.63;5036039;28;8850;-62
2022/10/09 06:31:51;;;;;;;;;4.00;4.00;;;;;5.16;73.66;100778.66;5036956;28;8917;-59
2022/10/09 06:34:19;;;;;;;;;5.60;5.20;;;;;5.23;73.16;100780.09;5036822;28;8827;-60
2022/10/09 06:36:47;;;;;;;;;6.80;5.20;;;;;5.32;72.85;100787.59;5037046;28;8843;-60
2022/10/09 06:39:14;;;;;;;;;6.40;6.40;;;;;5.38;73.30;100792.63;5036125;28;8824;-61
2022/10/09 06:41:42;;;;;;;;;7.00;6.00;;;;;5.42;72.89;100786.28;5036099;28;9493;-61
2022/10/09 06:44:10;;;;;;;;;11.20;10.00;;;;;5.47;72.79;100786.06;5035833;28;8854;-60
2022/10/09 06:46:42;;;;;;;;;13.80;12.80;;;;;5.54;72.73;100790.16;5036181;28;8827;-60
2022/10/09 06:49:10;;;;;;;;;22.40;19.80;;;;;5.59;72.65;100798.69;5036279;28;9490;-60
2022/10/09 06:51:38;;;;;;;;;18.20;15.60;;;;;5.63;73.08;100795.84;5036188;28;8850;-61
2022/10/09 06:54:07;;;;;;;;;14.60;13.00;;;;;5.68;72.79;100798.31;5036194;28;8851;-60
2022/10/09 06:56:35;;;;;;;;;8.00;6.80;;;;;5.73;72.78;100798.94;5036407;28;8820;-61
2022/10/09 06:59:02;;;;;;;;;10.20;9.80;;;;;5.79;72.45;100802.19;5035784;28;8824;-62
2022/10/09 07:01:30;;;;;;;;;7.40;7.20;;;;;5.85;72.53;100799.25;5036186;28;8918;-61
2022/10/09 07:03:58;;;;;;;;;7.00;7.00;;;;;5.93;72.24;100801.53;5036138;28;8838;-60
2022/10/09 07:06:26;;;;;;;;;7.40;6.80;;;;;6.03;72.59;100803.69;5035723;28;8937;-61
2022/10/09 07:08:54;;;;;;;;;6.20;6.20;;;;;6.16;72.25;100806.59;5035788;28;8851;-60
2022/10/09 07:11:22;;;;;;;;;9.00;9.00;;;;;6.29;71.57;100802.44;5035712;28;8836;-60
2022/10/09 07:13:49;;;;;;;;;6.00;6.00;;;;;6.44;71.72;100796.41;5035755;28;8840;-61
2022/10/09 07:16:17;;;;;;;;;4.40;4.40;;;;;6.62;71.14;100801.66;5035892;28;8844;-60
2022/10/09 07:18:45;;;;;;;;;4.00;4.00;;;;;6.81;71.15;100796.28;5035693;28;8843;-60
2022/10/09 07:21:13;;;;;;;;;4.00;4.00;;;;;7.03;70.99;100797.75;5034897;28;8832;-60
2022/10/09 07:23:41;;;;;;;;;4.00;4.00;;;;;7.23;70.75;100791.41;5035079;28;8831;-60
2022/10/09 07:26:09;;;;;;;;;4.00;3.80;;;;;7.37;70.53;100791.53;5035198;28;8836;-60
2022/10/09 07:28:36;;;;;;;;;3.60;3.60;;;;;7.47;70.03;100790.97;5034924;28;8824;-60
2022/10/09 07:31:04;;;;;;;;;4.80;4.00;;;;;7.65;70.24;100787.31;5034518;28;8835;-61
2022/10/09 07:33:32;;;;;;;;;3.00;3.00;;;;;7.86;70.28;100778.19;5034377;28;8828;-61
2022/10/09 07:36:00;;;;;;;;;4.00;3.50;;;;;8.10;69.38;100779.47;5034294;28;8890;-60
2022/10/09 07:38:28;;;;;;;;;6.00;6.00;;;;;8.35;69.14;100778.03;5034449;28;8844;-60
2022/10/09 07:40:56;;;;;;;;;4.00;4.00;;;;;8.55;69.23;100777.75;5034246;28;8847;-62
2022/10/09 07:43:24;;;;;;;;;3.75;3.75;;;;;8.71;69.10;100767.97;5034299;28;8856;-60
2022/10/09 07:45:52;;;;;;;;;5.00;5.00;;;;;8.84;68.88;100766.28;5034300;28;8886;-60
2022/10/09 07:48:19;;;;;;;;;4.50;4.50;;;;;8.99;68.54;100761.84;5034108;28;8874;-61
2022/10/09 07:50:47;;;;;;;;;10.00;9.25;;;;;9.09;68.61;100774.50;5034479;28;8832;-60
2022/10/09 07:53:15;;;;;;;;;9.00;9.00;;;;;9.17;68.59;100772.22;5033697;28;8901;-60
2022/10/09 07:55:42;;;;;;;;;9.25;8.00;;;;;9.26;68.24;100776.13;5033581;28;8850;-60
2022/10/09 07:58:10;;;;;;;;;7.00;7.00;;;;;9.34;68.00;100771.22;5032986;28;8832;-60
2022/10/09 08:00:39;;;;;;;;;10.50;10.00;;;;;9.46;67.99;100773.97;5033379;28;8835;-59
2022/10/09 08:03:08;;;;;;;;;7.50;7.50;;;;;9.57;67.78;100776.78;5033889;28;8971;-60
2022/10/09 08:05:35;;;;;;;;;8.50;8.00;;;;;9.63;67.89;100780.91;5033526;28;8948;-60
2022/10/09 08:08:03;;;;;;;;;4.00;4.00;;;;;9.69;67.82;100773.38;5033659;28;8844;-60
2022/10/09 08:10:31;;;;;;;;;2.75;2.50;;;;;9.78;67.25;100770.13;5033959;28;8866;-61
2022/10/09 08:12:59;;;;;;;;;9.50;8.00;;;;;9.88;67.28;100770.41;5033672;28;8859;-60
2022/10/09 08:15:27;;;;;;;;;9.00;6.75;;;;;10.02;67.34;100768.56;5032343;28;8836;-62
2022/10/09 08:17:55;;;;;;;;;4.50;4.50;;;;;10.20;66.73;100755.94;5032496;28;8856;-59
2022/10/09 08:20:22;;;;;;;;;8.50;6.50;;;;;10.41;66.42;100754.53;5036149;28;8993;-60
2022/10/09 08:22:51;;;;;;;;;5.00;5.00;;;;;10.63;66.03;100755.66;5036526;28;8860;-60
2022/10/09 08:25:19;;;;;;;;;6.00;6.00;;;;;10.94;66.45;100754.44;5037183;28;8836;-60
2022/10/09 08:27:47;;;;;;;;;5.00;5.00;;;;;11.25;65.62;100752.25;5036638;28;8848;-61
2022/10/09 08:30:14;;;;;;;;;5.50;4.00;;;;;11.60;65.21;100750.63;5036320;28;8843;-60
2022/10/09 08:32:42;;;;;;;;;7.00;6.00;;;;;11.96;63.93;100748.00;5036842;28;8839;-61
2022/10/09 08:35:10;;;;;;;;;6.25;6.00;;;;;12.25;64.05;100744.06;5036877;28;8954;-60
2022/10/09 08:37:38;;;;;;;;;6.50;6.50;;;;;12.46;63.87;100740.66;5036606;28;8847;-60
2022/10/09 08:40:06;;;;;;;;;6.00;6.00;;;;;12.59;63.64;100732.56;5037070;28;8847;-60
2022/10/09 08:42:34;;;;;;;;;3.00;3.00;;;;;12.66;63.32;100742.69;5036649;28;8847;-60
2022/10/09 08:45:02;;;;;;;;;6.50;6.00;;;;;12.69;63.81;100742.44;5037432;28;9754;-60
2022/10/09 08:47:29;;;;;;;;;4.00;4.00;;;;;12.71;63.05;100742.34;5037418;28;8913;-60
2022/10/09 08:49:57;;;;;;;;;6.75;6.75;;;;;12.74;63.18;100736.75;5037114;28;8831;-61
2022/10/09 08:52:25;;;;;;;;;5.00;4.00;;;;;12.72;63.94;100736.88;5037224;28;8902;-60
2022/10/09 08:54:53;;;;;;;;;5.00;4.50;;;;;12.75;63.52;100731.28;5036570;28;8866;-60
2022/10/09 08:57:21;;;;;;;;;5.00;4.00;;;;;12.77;63.60;100733.88;5037374;28;8951;-60
2022/10/09 08:59:49;;;;;;;;;6.00;6.00;;;;;12.81;63.49;100727.28;5037423;28;8848;-60
2022/10/09 09:02:17;;;;;;;;;3.00;3.00;;;;;12.89;63.27;100727.56;5035541;28;8840;-61
2022/10/09 09:04:45;;;;;;;;;7.50;6.00;;;;;12.95;63.75;100725.31;5036298;28;8875;-60
2022/10/09 09:07:20;;;;;;;;;5.50;4.00;;;;;13.00;63.61;100722.28;5037241;28;8852;-60
2022/10/09 09:09:48;;;;;;;;;7.00;6.75;;;;;13.03;63.70;100711.34;5037462;28;8966;-60
2022/10/09 09:12:15;;;;;;;;;6.25;6.00;;;;;13.06;63.35;100719.16;5036795;28;8872;-60
2022/10/09 09:14:43;;;;;;;;;3.00;3.00;;;;;13.09;63.86;100711.75;5036126;28;8848;-61
2022/10/09 09:17:11;;;;;;;;;6.00;6.00;;;;;13.16;63.17;100706.75;5036250;28;8828;-61
2022/10/09 09:19:39;;;;;;;;;4.00;4.00;;;;;13.24;63.49;100712.34;5036452;28;8844;-61
2022/10/09 09:22:07;;;;;;;;;5.00;4.00;;;;;13.33;63.86;100704.47;5036704;28;8859;-60
2022/10/09 09:24:35;;;;;;;;;4.00;4.00;;;;;13.45;63.33;100702.66;5036126;28;8914;-61
2022/10/09 09:27:04;;;;;;;;;4.00;4.00;;;;;13.57;63.05;100697.16;5036863;28;8831;-60
2022/10/09 09:29:32;;;;;;;;;2.50;2.50;;;;;13.75;62.75;100694.84;5036252;28;8839;-60
2022/10/09 09:32:00;;;;;;;;;2.50;2.00;;;;;13.91;62.71;100689.94;5036527;28;8878;-60
2022/10/09 09:34:28;;;;;;;;;5.50;4.00;;;;;14.05;61.79;100685.16;5036162;28;8846;-60
2022/10/09 09:36:56;;;;;;;;;3.00;3.00;;;;;14.23;61.88;100680.16;5035941;28;8937;-60
2022/10/09 09:39:24;;;;;;;;;1.00;1.00;;;;;14.40;61.86;100677.78;5036081;28;8853;-61
2022/10/09 09:42:13;;;;;;;;;2.50;1.00;;;;;14.64;61.12;100673.03;5035781;28;8855;-60
2022/10/09 09:44:40;;;;;;;;;2.50;1.00;;;;;14.86;61.16;100674.75;5034920;28;8944;-61
2022/10/09 09:47:08;;;;;;;;;1.00;1.00;;;;;15.03;60.73;100666.09;5036424;28;8844;-60
2022/10/09 09:49:36;;;;;;;;;3.00;3.00;;;;;15.19;60.07;100663.78;5036074;28;8832;-60
2022/10/09 09:52:04;;;;;;;;;4.60;3.80;;;;;15.37;59.80;100657.69;5037024;28;8847;-61
2022/10/09 09:54:32;;;;;;;;;2.60;2.60;;;;;15.59;59.37;100653.94;5036710;28;8842;-60
2022/10/09 09:57:00;;;;;;;;;1.80;1.80;;;;;16.00;58.90;100651.09;5036953;28;8855;-61
2022/10/09 09:59:48;;;;;;;;;0.40;0.40;;;;;16.70;57.35;100644.50;5037214;28;8831;-61
2022/10/09 10:02:17;;;;;;;;;3.20;3.20;;;;;17.54;55.85;100639.84;5036505;28;8948;-61
2022/10/09 10:04:45;;;;;;;;;3.00;3.00;;;;;18.27;54.82;100631.59;5035969;28;8851;-60
2022/10/09 10:07:13;;;;;;;;;1.40;1.00;;;;;18.82;53.77;100633.09;5036507;28;8941;-60
2022/10/09 10:09:41;;;;;;;;;1.40;1.40;;;;;19.20;53.18;100621.06;5036589;28;8855;-61
2022/10/09 10:12:09;;;;;;;;;0.60;0.60;;;;;19.36;53.08;100624.69;5036540;28;8847;-61
2022/10/09 10:14:38;;;;;;;;;1.00;1.00;;;;;19.32;53.42;100626.03;5036434;28;8868;-61
2022/10/09 10:17:05;;;;;;;;;3.20;3.00;;;;;19.15;53.95;100612.56;5036380;28;8844;-60
2022/10/09 10:19:34;;;;;;;;;1.00;1.00;;;;;18.97;54.38;100618.03;5035729;28;8913;-61
2022/10/09 10:22:02;;;;;;;;;3.00;3.00;;;;;18.79;55.12;100616.38;5036286;28;8844;-60
2022/10/09 10:24:30;;;;;;;;;3.00;2.60;;;;;18.68;55.02;100617.47;5036127;28;9525;-60
2022/10/09 10:26:58;;;;;;;;;1.00;1.00;;;;;18.67;55.26;100618.47;5036255;28;8851;-61
2022/10/09 10:29:26;;;;;;;;;0.80;0.80;;;;;18.86;55.04;100612.03;5036147;28;8851;-61
2022/10/09 10:31:54;;;;;;;;;1.00;1.00;;;;;19.10;53.92;100610.34;5034723;28;8970;-60
2022/10/09 10:34:21;;;;;;;;;1.00;1.00;;;;;19.49;53.00;100602.66;5034664;28;8851;-61
2022/10/09 10:36:49;;;;;;;;;4.80;4.00;;;;;19.97;52.01;100591.97;5034985;28;8843;-61
2022/10/09 10:39:17;;;;;;;;;2.40;1.80;;;;;20.10;51.78;100598.63;5034894;28;8978;-61
2022/10/09 10:41:46;;;;;;;;;3.00;3.00;;;;;20.06;52.61;100589.16;5033778;28;8970;-61
2022/10/09 10:44:14;;;;;;;;;2.80;2.80;;;;;19.91;53.11;100584.53;5033551;28;8895;-61
2022/10/09 10:46:43;;;;;;;;;3.40;2.20;;;;;19.81;53.30;100587.38;5034396;28;8851;-62
2022/10/09 10:49:11;;;;;;;;;4.00;2.60;;;;;19.85;53.12;100579.78;5033771;28;8933;-61
2022/10/09 10:51:39;;;;;;;;;1.00;1.00;;;;;20.13;53.32;100583.94;5033518;28;9538;-61
2022/10/09 10:54:07;;;;;;;;;1.00;1.00;;;;;20.21;52.80;100571.28;5033034;28;8827;-61
2022/10/09 10:56:35;;;;;;;;;2.00;2.00;;;;;20.01;53.04;100577.13;5033816;28;8997;-61
2022/10/09 10:59:03;;;;;;;;;2.20;2.20;;;;;19.72;53.37;100568.63;5034374;28;8851;-62
2022/10/09 11:01:32;;;;;;;;;2.20;2.20;;;;;19.45;53.36;100577.81;5035028;28;8974;-60
2022/10/09 11:04:00;;;;;;;;;2.20;2.20;;;;;19.27;53.16;100577.03;5034715;28;8835;-62
2022/10/09 11:06:28;;;;;;;;;3.00;3.00;;;;;19.15;53.28;100569.34;5034944;28;8832;-62
2022/10/09 11:08:55;;;;;;;;;1.00;1.00;;;;;19.02;53.37;100561.69;5035204;28;8843;-62
2022/10/09 11:11:23;;;;;;;;;4.00;4.00;;;;;18.90;53.72;100571.06;5035298;28;8862;-63
2022/10/09 11:13:53;;;;;;;;;0.60;0.60;;;;;18.82;53.88;100557.53;5034755;28;8832;-63
2022/10/09 11:16:21;;;;;;;;;3.00;3.00;;;;;18.83;53.60;100559.22;5035043;28;8847;-61
2022/10/09 11:18:49;;;;;;;;;3.00;3.00;;;;;19.20;53.02;100551.69;5034997;28;8866;-61
2022/10/09 11:21:17;;;;;;;;;1.00;1.00;;;;;19.76;51.79;100546.50;5035232;28;8872;-61
2022/10/09 11:23:45;;;;;;;;;2.60;2.60;;;;;20.23;50.51;100542.19;5035029;28;8925;-61
2022/10/09 11:26:13;;;;;;;;;1.80;1.40;;;;;20.83;49.63;100532.66;5035112;28;8850;-62
2022/10/09 11:28:41;;;;;;;;;1.40;1.40;;;;;21.61;47.99;100526.25;5034253;28;8847;-60
2022/10/09 11:31:09;;;;;;;;;1.00;1.00;;;;;22.40;46.67;100524.84;5034672;28;8844;-62
2022/10/09 11:33:37;;;;;;;;;2.00;2.00;;;;;22.87;46.49;100516.44;5034572;28;9486;-62
2022/10/09 11:36:05;;;;;;;;;2.00;2.00;;;;;23.04;45.37;100512.50;5034456;28;8832;-61
2022/10/09 11:38:33;;;;;;;;;2.80;1.40;;;;;23.17;46.17;100510.00;5033682;28;8843;-62
2022/10/09 11:41:01;;;;;;;;;2.00;2.00;;;;;23.51;45.97;100507.53;5033748;28;8851;-62